Latest Weather Observations for Cape Moreton

IDQ60801

Issued at 8:02 pm EST Sunday 25 January 2015 (issued every 30 minutes, with the page automatically refreshed every 10 minutes)

About weather observations | Map of weather stations | Latest weather observations for QLD | Other Formats
Station Details ID: 040043 Name: CAPE MORETON LIGHTHOUSE Lat: -27.03 Lon: 153.47 Height: 99.9 m
Data from the previous 72 hours. | See also: Recent months at Cape Moreton
Date/Time
EST
Temp
°C
App
Temp
°C
Dew
Point
Rel
Hum
%
Delta-T
°C
Wind Press
QNH
hPa
Press
MSL
hPa
Rain
since 9 am
mm
Dir
 
Spd
km/h
Gust
km/h
Spd
kts
Gust
kts
25/08:00pm 26.4 30.4 26.2 99 0.1 N 17 20 9 11 1006.1 1005.5 0.0
25/07:30pm 26.4 30.0 26.1 98 0.2 N 19 22 10 12 1005.8 1005.2 0.0
25/07:00pm 26.4 29.3 25.9 97 0.4 N 22 26 12 14 1005.3 1004.7 0.0
25/06:30pm 26.4 29.6 25.5 95 0.6 N 19 22 10 12 1004.6 1004.0 0.0
25/06:00pm 26.6 29.1 25.4 93 0.8 NNE 22 28 12 15 1004.1 1003.5 0.0
25/05:30pm 26.8 29.9 25.4 92 1.0 NNE 19 24 10 13 1004.1 1003.5 0.0
25/05:00pm 27.1 30.1 25.3 90 1.3 NNE 19 22 10 12 1003.5 1002.9 0.0
25/04:30pm 27.3 30.2 25.1 88 1.5 NNE 19 24 10 13 1003.5 1002.9 0.0
25/04:00pm 27.0 29.7 25.0 89 1.4 NNE 20 24 11 13 1003.7 1003.1 0.0
25/03:30pm 27.7 30.4 24.7 84 2.1 NNE 19 24 10 13 1004.1 1003.5 0.0
25/03:00pm 28.1 30.8 24.7 82 2.4 NNE 19 24 10 13 1004.0 1003.4 0.0
25/02:30pm 28.1 30.6 24.5 81 2.5 NNE 19 24 10 13 1004.3 1003.7 0.0
25/02:00pm 27.9 30.1 24.3 81 2.5 NNE 20 24 11 13 1004.5 1003.9 0.0
25/01:30pm 28.0 30.2 24.2 80 2.6 NNE 20 28 11 15 1004.6 1004.0 0.0
25/01:00pm 28.4 30.8 24.6 80 2.7 NNE 20 24 11 13 1004.8 1004.2 0.0
25/12:30pm 27.9 30.2 24.1 80 2.6 N 19 22 10 12 1005.1 1004.5 0.0
25/12:00pm 28.2 31.4 24.4 80 2.7 N 15 22 8 12 1005.4 1004.8 0.0
25/11:30am 27.9 30.6 24.1 80 2.6 NNW 17 24 9 13 1005.7 1005.1 0.0
25/11:00am 27.4 29.8 23.6 80 2.6 NNW 17 22 9 12 1005.9 1005.3 0.0
25/10:30am 26.6 28.0 22.9 80 2.5 NW 20 24 11 13 1006.3 1005.8 0.0
25/10:00am 26.8 28.3 23.1 80 2.5 NW 20 26 11 14 1006.5 1006.0 0.0
25/09:30am 26.5 27.8 22.3 78 2.8 NW 19 24 10 13 1006.7 1006.2 0.0
25/09:00am 26.5 27.5 22.1 77 3.0 NW 20 30 11 16 1006.8 1006.3 0.2
25/08:30am 26.4 27.8 22.5 79 2.6 NW 19 26 10 14 1007.2 1006.7 0.2
25/08:00am 25.7 26.3 21.4 77 2.9 WNW 20 28 11 15 1007.3 1006.8 0.2
25/07:30am 25.6 27.2 22.1 81 2.4 NW 17 22 9 12 1007.3 1006.8 0.2
25/07:00am 25.1 26.1 21.8 82 2.2 NW 19 24 10 13 1007.2 1006.7 0.2
25/06:30am 24.8 26.4 22.1 85 1.8 NW 17 22 9 12 1007.1 1006.6 0.2
25/06:00am 24.3 26.1 22.6 90 1.1 NW 17 22 9 12 1006.8 1006.3 0.2
25/05:30am 23.8 25.6 22.6 93 0.8 NW 17 20 9 11 1006.6 1006.1 0.2
25/05:00am 23.9 25.5 22.9 94 0.7 NW 19 26 10 14 1006.4 1005.9 0.2
25/04:30am 23.9 25.9 23.0 95 0.6 NW 17 24 9 13 1006.4 1005.9 0.2
25/04:00am 24.0 26.5 23.1 95 0.6 NW 15 19 8 10 1006.1 1005.5 0.2
25/03:30am 24.0 26.4 23.0 94 0.7 NW 15 20 8 11 1006.2 1005.6 0.2
25/03:00am 24.1 26.1 22.9 93 0.8 NW 17 20 9 11 1006.3 1005.8 0.2
25/02:30am 24.1 26.1 22.9 93 0.8 NW 17 20 9 11 1006.3 1005.8 0.2
25/02:00am 23.9 25.8 22.7 93 0.8 NW 17 19 9 10 1006.3 1005.8 0.2
25/01:30am 23.7 26.2 22.5 93 0.8 NW 13 15 7 8 1006.3 1005.8 0.2
25/01:00am 23.9 26.7 22.3 91 1.1 WNW 11 13 6 7 1006.4 1005.9 0.2
25/12:30am 23.6 25.7 21.7 89 1.3 WNW 13 13 7 7 1006.7 1006.2 0.2
25/12:00am 23.8 26.7 21.7 88 1.4 WNW 9 9 5 5 1006.8 1006.3 0.2
 
Date/Time
EST
Temp
°C
App
Temp
°C
Dew
Point
Rel
Hum
%
Delta-T
°C
Wind Press
QNH
hPa
Press
MSL
hPa
Rain
since 9 am
mm
Dir
 
Spd
km/h
Gust
km/h
Spd
kts
Gust
kts
24/11:30pm 23.9 27.2 21.8 88 1.4 WNW 7 7 4 4 1007.2 1006.7 0.2
24/11:00pm 24.0 28.7 21.9 88 1.4 CALM 0 0 0 0 1007.2 1006.7 0.2
24/10:30pm 24.0 27.5 21.9 88 1.4 ESE 6 7 3 4 1007.3 1006.8 0.2
24/10:00pm 24.1 28.6 22.2 89 1.3 E 2 6 1 3 1007.4 1006.9 0.2
24/09:30pm 24.0 27.1 22.1 89 1.3 ESE 9 11 5 6 1006.9 1006.4 0.2
24/09:00pm 24.1 26.8 22.2 89 1.3 ESE 11 13 6 7 1006.7 1006.2 0.2
24/08:30pm 24.3 26.4 22.4 89 1.3 ESE 15 19 8 10 1006.4 1005.9 0.2
24/08:00pm 24.4 26.2 22.5 89 1.3 ESE 17 20 9 11 1006.2 1005.6 0.2
24/07:30pm 24.5 25.6 22.4 88 1.4 ESE 20 24 11 13 1005.9 1005.3 0.2
24/07:00pm 24.4 25.6 22.5 89 1.3 SE 20 26 11 14 1005.7 1005.1 0.2
24/06:30pm 24.6 25.7 22.3 87 1.5 SE 20 24 11 13 1005.6 1005.0 0.2
24/06:00pm 24.8 25.9 22.3 86 1.7 SE 20 26 11 14 1005.5 1004.9 0.2
24/05:30pm 25.3 26.3 22.2 83 2.1 SE 20 26 11 14 1005.4 1004.8 0.2
24/05:00pm 25.4 26.0 22.1 82 2.2 SE 22 26 12 14 1005.3 1004.7 0.2
24/04:30pm 25.6 26.2 22.1 81 2.4 SSE 22 28 12 15 1005.1 1004.5 0.2
24/04:00pm 25.6 24.7 21.5 78 2.7 SSE 28 33 15 18 1005.0 1004.4 0.2
24/03:30pm 25.8 24.5 22.1 80 2.5 SE 32 35 17 19 1004.9 1004.3 0.2
24/03:00pm 25.7 24.1 21.8 79 2.6 SE 33 41 18 22 1004.7 1004.1 0.2
24/02:30pm 25.9 24.7 22.2 80 2.5 SSE 32 37 17 20 1005.4 1004.8 0.2
24/02:00pm 25.8 26.3 23.3 86 1.7 SE 26 32 14 17 1005.7 1005.1 0.2
24/01:30pm 25.6 26.7 23.6 89 1.4 SSE 24 32 13 17 1005.9 1005.3 0.2
24/01:00pm 24.1 23.6 22.9 93 0.8 SSE 30 37 16 20 1005.9 1005.3 0.2
24/12:30pm 24.7 25.5 23.8 95 0.6 S 26 35 14 19 1005.9 1005.3 0.2
24/12:00pm 25.0 27.5 24.7 98 0.2 S 20 28 11 15 1006.0 1005.4 0.2
24/11:30am 24.3 24.5 24.1 99 0.1 SSE 30 35 16 19 1006.0 1005.4 0.2
24/11:00am 24.3 25.4 24.3 100 0.0 SE 26 32 14 17 1006.0 1005.4 0.0
24/10:30am 23.6 23.1 23.6 100 0.0 SE 32 39 17 21 1006.1 1005.5 0.0
24/10:00am 22.9 20.7 22.9 100 0.0 SE 39 44 21 24 1006.1 1005.5 0.0
24/09:30am 22.6 19.5 22.6 100 0.0 SE 43 50 23 27 1005.8 1005.2 0.0
24/09:00am 22.3 17.6 22.1 99 0.1 SE 50 57 27 31 1005.4 1004.8 56.6
24/08:30am 22.3 18.9 22.1 99 0.1 SE 43 50 23 27 1005.3 1004.7 55.6
24/08:00am 22.8 20.1 22.6 99 0.1 SSE 41 48 22 26 1005.1 1004.5 53.8
24/07:30am 22.9 22.3 22.7 99 0.1 SSE 30 39 16 21 1005.2 1004.6 48.8
24/07:27am 22.7 22.0 22.5 99 0.1 SSE 30 37 16 20 1005.3 1004.7 48.8
24/07:00am 22.6 19.2 22.4 99 0.1 SE 44 52 24 28 1004.7 1004.1 48.6
24/06:30am 23.0 22.5 22.8 99 0.1 SE 30 39 16 21 1004.8 1004.2 45.0
24/06:27am 22.9 22.7 22.7 99 0.1 SE 28 39 15 21 1004.8 1004.2 44.8
24/06:00am 22.5 24.5 22.3 99 0.1 ENE 15 19 8 10 1004.7 1004.1 39.6
24/05:30am 23.2 22.4 23.0 99 0.1 ESE 32 43 17 23 1004.3 1003.7 35.6
24/05:22am 23.4 23.5 23.2 99 0.1 SE 28 43 15 23 1004.0 1003.4 35.6
24/05:00am 22.1 23.5 21.9 99 0.1 S 17 24 9 13 1004.0 1003.4 35.6
24/04:30am 21.9 22.7 21.7 99 0.1 S 20 26 11 14 1003.7 1003.1 35.4
24/04:00am 21.7 20.5 21.5 99 0.1 SE 30 33 16 18 1003.3 1002.7 35.2
24/03:30am 21.5 18.5 21.3 99 0.1 SE 39 44 21 24 1002.9 1002.3 33.8
24/03:00am 21.6 18.6 21.4 99 0.1 ESE 39 43 21 23 1003.2 1002.6 33.2
24/02:30am 21.9 20.4 21.7 99 0.1 ESE 32 37 17 20 1003.9 1003.3 33.2
24/02:00am 21.9 18.1 21.7 99 0.1 ESE 44 52 24 28 1003.5 1002.9 33.0
24/01:30am 22.5 18.6 22.3 99 0.1 ESE 46 56 25 30 1003.3 1002.7 30.6
24/01:00am 23.0 19.8 22.8 99 0.1 ESE 44 50 24 27 1003.4 1002.8 28.8
24/12:30am 22.7 19.5 22.5 99 0.1 ESE 43 50 23 27 1003.7 1003.1 28.4
24/12:00am 22.7 17.4 22.5 99 0.1 ESE 54 65 29 35 1003.8 1003.2 28.0
 
Date/Time
EST
Temp
°C
App
Temp
°C
Dew
Point
Rel
Hum
%
Delta-T
°C
Wind Press
QNH
hPa
Press
MSL
hPa
Rain
since 9 am
mm
Dir
 
Spd
km/h
Gust
km/h
Spd
kts
Gust
kts
23/11:51pm 22.9 19.3 22.7 99 0.1 ESE 46 65 25 35 1003.9 1003.3 27.8
23/11:30pm 23.1 18.8 22.9 99 0.1 ESE 50 59 27 32 1004.3 1003.7 26.8
23/11:00pm 23.1 18.8 22.9 99 0.1 ESE 50 56 27 30 1004.4 1003.8 26.4
23/10:30pm 22.2 16.7 22.0 99 0.1 E 54 61 29 33 1004.4 1003.8 26.4
23/10:00pm 22.3 18.9 22.1 99 0.1 ESE 43 50 23 27 1004.9 1004.3 26.2
23/09:30pm 22.8 20.4 22.6 99 0.1 ESE 39 44 21 24 1005.1 1004.5 26.2
23/09:00pm 22.5 17.1 22.3 99 0.1 ESE 54 61 29 33 1004.7 1004.1 25.6
23/08:50pm 22.9 19.3 22.7 99 0.1 ESE 46 61 25 33 1004.4 1003.8 25.6
23/08:30pm 22.7 20.7 22.5 99 0.1 ESE 37 46 20 25 1004.9 1004.3 25.6
23/08:00pm 22.5 22.4 22.3 99 0.1 ESE 26 32 14 17 1005.0 1004.4 25.6
23/07:42pm 22.2 20.8 22.0 99 0.1 S 32 50 17 27 1004.9 1004.3 25.6
23/07:30pm 22.3 19.7 22.1 99 0.1 S 39 54 21 29 1004.9 1004.3 25.4
23/07:01pm 22.9 19.6 22.7 99 0.1 SSE 44 63 24 34 1004.5 1003.9 24.6
23/07:00pm 22.8 19.1 22.6 99 0.1 SSE 46 63 25 34 1004.5 1003.9 24.6
23/06:36pm 22.7 22.0 22.5 99 0.1 SE 30 54 16 29 1004.7 1004.1 24.4
23/06:30pm 22.8 24.1 22.6 99 0.1 ESE 20 39 11 21 1005.0 1004.4 24.4
23/06:00pm 23.4 25.6 23.2 99 0.1 SE 17 24 9 13 1004.7 1004.1 23.4
23/05:30pm 23.5 25.3 23.3 99 0.1 SE 19 22 10 12 1004.4 1003.8 20.6
23/05:00pm 23.4 25.0 23.2 99 0.1 SE 20 33 11 18 1004.1 1003.5 15.6
23/04:30pm 23.4 25.0 23.2 99 0.1 E 20 24 11 13 1004.4 1003.8 13.6
23/04:00pm 23.4 23.8 23.2 99 0.1 E 26 32 14 17 1004.1 1003.5 11.8
23/03:30pm 23.5 23.6 23.3 99 0.1 ESE 28 33 15 18 1004.4 1003.8 10.6
23/03:00pm 23.4 23.1 23.2 99 0.1 E 30 35 16 19 1004.6 1004.0 9.2
23/02:30pm 23.4 23.0 23.1 98 0.2 ESE 30 35 16 19 1004.9 1004.3 8.0
23/02:00pm 23.5 22.7 23.0 97 0.3 E 32 41 17 22 1004.8 1004.2 8.0
23/01:39pm 23.8 23.8 23.1 96 0.5 E 28 48 15 26 1004.8 1004.2 5.4
23/01:30pm 24.2 26.1 23.5 96 0.5 ESE 19 24 10 13 1004.8 1004.2 1.4
23/01:00pm 23.0 22.9 22.2 95 0.5 E 26 30 14 16 1005.2 1004.6 1.0
23/12:30pm 22.8 20.6 22.1 96 0.5 ESE 37 52 20 28 1005.3 1004.7 0.6
23/12:29pm 23.2 21.7 22.7 97 0.3 ESE 35 52 19 28 1005.4 1004.8 0.6
23/12:00pm 23.8 21.8 23.3 97 0.3 ESE 39 46 21 25 1005.7 1005.1 0.6
23/11:30am 23.7 21.7 23.2 97 0.3 ESE 39 44 21 24 1006.3 1005.8 0.6
23/11:00am 24.0 23.4 23.7 98 0.2 ESE 33 41 18 22 1006.8 1006.3 0.6
23/10:30am 23.3 22.0 23.1 99 0.1 ESE 35 39 19 21 1007.1 1006.6 0.6
23/10:00am 23.3 22.0 23.1 99 0.1 ESE 35 39 19 21 1007.3 1006.8 0.6
23/09:30am 22.2 20.7 22.0 99 0.1 ESE 33 39 18 21 1007.8 1007.3 0.4
23/09:00am 22.4 20.6 22.2 99 0.1 ENE 35 43 19 23 1008.1 1007.6 44.6
23/08:30am 21.9 18.3 21.7 99 0.1 ENE 43 52 23 28 1008.0 1007.5 42.0
23/08:22am 22.1 21.5 21.9 99 0.1 ENE 28 52 15 28 1007.9 1007.4 40.8
23/08:00am 21.7 20.0 21.4 98 0.2 ENE 32 39 17 21 1008.1 1007.6 36.0
23/07:41am 22.9 22.3 22.6 98 0.2 NE 30 48 16 26 1007.7 1007.2 33.6
23/07:30am 22.1 21.3 21.6 97 0.3 ENE 28 41 15 22 1007.9 1007.4 32.4
23/07:00am 23.4 22.5 22.9 97 0.3 ENE 32 44 17 24 1007.7 1007.2 24.0
23/06:38am 22.8 18.3 21.8 94 0.7 ENE 48 69 26 37 1006.9 1006.4 18.2
23/06:30am 23.8 20.8 22.9 95 0.6 ENE 43 46 23 25 1007.2 1006.7 17.6
23/06:00am 23.8 21.0 23.1 96 0.5 E 43 52 23 28 1006.8 1006.3 16.6
23/05:30am 22.7 20.3 21.9 95 0.5 ENE 37 48 20 26 1006.8 1006.3 15.4
23/05:00am 23.2 20.0 22.4 95 0.5 ENE 43 54 23 29 1006.3 1005.8 13.8
23/04:54am 24.0 22.9 23.5 97 0.3 ENE 35 43 19 23 1006.5 1006.0 13.6
23/04:37am 23.7 22.3 23.0 96 0.5 ENE 35 46 19 25 1006.7 1006.2 13.6
23/04:30am 23.8 22.2 23.3 97 0.3 ENE 37 46 20 25 1006.3 1005.8 13.6
23/04:08am 22.6 20.7 22.1 97 0.3 NE 35 54 19 29 1006.5 1006.0 13.4
23/04:00am 22.3 19.0 21.6 96 0.5 NE 41 54 22 29 1006.6 1006.1 12.6
23/03:45am 23.1 21.6 22.1 94 0.7 NE 33 44 18 24 1006.5 1006.0 7.4
23/03:30am 23.6 23.1 22.8 95 0.5 ENE 30 33 16 18 1006.4 1005.9 7.2
23/03:17am 23.2 22.7 22.2 94 0.7 NNE 28 43 15 23 1006.5 1006.0 7.0
23/03:00am 24.0 25.9 22.8 93 0.8 NNE 17 22 9 12 1006.6 1006.1 4.8
23/02:30am 23.8 25.1 22.6 93 0.8 NE 20 26 11 14 1006.9 1006.4 4.8
23/02:00am 23.5 23.3 22.1 92 0.9 NNE 26 37 14 20 1007.2 1006.7 4.8
23/01:30am 23.9 22.4 22.7 93 0.8 E 35 43 19 23 1007.2 1006.7 4.8
23/01:17am 23.2 22.6 22.0 93 0.8 ENE 28 43 15 23 1007.5 1007.0 4.8
23/01:00am 23.2 24.5 21.6 91 1.1 N 17 24 9 13 1008.0 1007.5 4.0
23/12:30am 24.2 25.3 21.9 87 1.5 NE 19 24 10 13 1008.5 1008.0 3.8
23/12:00am 24.0 25.1 22.4 91 1.1 NE 20 28 11 15 1008.8 1008.3 3.8
 
Date/Time
EST
Temp
°C
App
Temp
°C
Dew
Point
Rel
Hum
%
Delta-T
°C
Wind Press
QNH
hPa
Press
MSL
hPa
Rain
since 9 am
mm
Dir
 
Spd
km/h
Gust
km/h
Spd
kts
Gust
kts
22/11:30pm 23.2 21.5 21.3 89 1.3 NNE 32 37 17 20 1009.2 1008.7 3.8
22/11:00pm 24.3 25.1 21.4 84 1.9 ENE 19 22 10 12 1009.5 1009.0 3.6
22/10:30pm 23.9 24.3 21.0 84 1.9 ENE 20 24 11 13 1010.0 1009.5 3.6
22/10:00pm 24.0 23.4 20.5 81 2.3 ENE 24 30 13 16 1010.2 1009.7 3.6
22/09:30pm 23.7 22.8 19.8 79 2.5 NE 24 30 13 16 1010.4 1009.9 3.6
22/09:00pm 23.8 23.1 20.3 81 2.3 NE 24 30 13 16 1010.4 1009.9 3.6
22/08:30pm 23.4 23.4 20.9 86 1.6 NE 22 28 12 15 1010.4 1009.9 3.6

Other Formats:

Comma delimited format used in spreadsheet applications
http://www.bom.gov.au/fwo/IDQ60801/IDQ60801.94594.axf

JavaScript Object Notation format (JSON) in row-major order
http://www.bom.gov.au/fwo/IDQ60801/IDQ60801.94594.json